sensor_id;sensor_type;location;lat;lon;timestamp;pressure;altitude;pressure_sealevel;temperature;humidity
65384;BME280;51986;52.788;41.368;2022-10-31T00:01:47;97732.50;;;1.51;61.27
65384;BME280;51986;52.788;41.368;2022-10-31T00:04:14;97715.81;;;1.52;61.06
65384;BME280;51986;52.788;41.368;2022-10-31T00:06:40;97722.09;;;1.44;61.10
65384;BME280;51986;52.788;41.368;2022-10-31T00:09:09;97708.00;;;1.38;61.15
65384;BME280;51986;52.788;41.368;2022-10-31T00:11:36;97702.41;;;1.28;61.54
65384;BME280;51986;52.788;41.368;2022-10-31T00:14:03;97706.41;;;1.08;61.84
65384;BME280;51986;52.788;41.368;2022-10-31T00:16:30;97691.94;;;1.07;61.80
65384;BME280;51986;52.788;41.368;2022-10-31T00:18:59;97703.84;;;1.22;61.83
65384;BME280;51986;52.788;41.368;2022-10-31T00:21:27;97717.25;;;1.24;61.37
65384;BME280;51986;52.788;41.368;2022-10-31T00:23:55;97700.91;;;1.20;61.85
65384;BME280;51986;52.788;41.368;2022-10-31T00:26:22;97710.94;;;1.32;61.52
65384;BME280;51986;52.788;41.368;2022-10-31T00:28:49;97703.09;;;1.15;61.42
65384;BME280;51986;52.788;41.368;2022-10-31T00:31:16;97716.47;;;1.17;61.27
65384;BME280;51986;52.788;41.368;2022-10-31T00:33:43;97713.50;;;1.18;61.48
65384;BME280;51986;52.788;41.368;2022-10-31T00:36:13;97697.13;;;1.07;61.55
65384;BME280;51986;52.788;41.368;2022-10-31T00:38:41;97702.34;;;1.11;61.98
65384;BME280;51986;52.788;41.368;2022-10-31T00:41:10;97712.75;;;1.11;61.19
65384;BME280;51986;52.788;41.368;2022-10-31T00:43:40;97699.78;;;1.25;61.02
65384;BME280;51986;52.788;41.368;2022-10-31T00:46:08;97705.22;;;0.80;61.77
65384;BME280;51986;52.788;41.368;2022-10-31T00:48:35;97730.53;;;1.12;61.52
65384;BME280;51986;52.788;41.368;2022-10-31T00:51:02;97706.75;;;0.96;61.63
65384;BME280;51986;52.788;41.368;2022-10-31T00:53:29;97706.00;;;0.95;61.93
65384;BME280;51986;52.788;41.368;2022-10-31T00:55:55;97700.44;;;0.97;61.14
65384;BME280;51986;52.788;41.368;2022-10-31T00:58:22;97703.41;;;0.92;61.68
65384;BME280;51986;52.788;41.368;2022-10-31T01:00:50;97694.44;;;0.78;61.52
65384;BME280;51986;52.788;41.368;2022-10-31T01:03:17;97726.00;;;0.88;62.05
65384;BME280;51986;52.788;41.368;2022-10-31T01:05:44;97694.81;;;0.77;62.17
65384;BME280;51986;52.788;41.368;2022-10-31T01:08:11;97708.97;;;0.97;61.54
65384;BME280;51986;52.788;41.368;2022-10-31T01:10:38;97669.16;;;0.65;61.89
65384;BME280;51986;52.788;41.368;2022-10-31T01:13:05;97706.00;;;0.92;61.85
65384;BME280;51986;52.788;41.368;2022-10-31T01:15:31;97716.00;;;0.90;61.54
65384;BME280;51986;52.788;41.368;2022-10-31T01:17:58;97708.16;;;0.79;61.95
65384;BME280;51986;52.788;41.368;2022-10-31T01:20:28;97709.22;;;0.64;62.35
65384;BME280;51986;52.788;41.368;2022-10-31T01:22:55;97714.84;;;0.84;61.70
65384;BME280;51986;52.788;41.368;2022-10-31T01:25:23;97683.66;;;0.69;62.09
65384;BME280;51986;52.788;41.368;2022-10-31T01:27:50;97702.94;;;0.68;61.86
65384;BME280;51986;52.788;41.368;2022-10-31T01:30:16;97702.22;;;0.71;61.80
65384;BME280;51986;52.788;41.368;2022-10-31T01:32:43;97702.22;;;0.78;62.04
65384;BME280;51986;52.788;41.368;2022-10-31T01:35:10;97701.03;;;0.65;62.06
65384;BME280;51986;52.788;41.368;2022-10-31T01:37:37;97709.91;;;0.57;62.51
65384;BME280;51986;52.788;41.368;2022-10-31T01:40:04;97731.09;;;0.66;62.05
65384;BME280;51986;52.788;41.368;2022-10-31T01:42:31;97696.91;;;0.50;62.25
65384;BME280;51986;52.788;41.368;2022-10-31T01:45:00;97702.13;;;0.57;62.20
65384;BME280;51986;52.788;41.368;2022-10-31T01:47:36;97723.66;;;0.61;62.40
65384;BME280;51986;52.788;41.368;2022-10-31T01:50:11;97723.22;;;0.48;62.47
65384;BME280;51986;52.788;41.368;2022-10-31T01:52:47;97701.41;;;0.57;62.14
65384;BME280;51986;52.788;41.368;2022-10-31T01:55:32;97717.66;;;0.50;62.14
65384;BME280;51986;52.788;41.368;2022-10-31T01:58:08;97726.63;;;0.63;62.15
65384;BME280;51986;52.788;41.368;2022-10-31T02:00:36;97703.56;;;0.47;62.32
65384;BME280;51986;52.788;41.368;2022-10-31T02:03:03;97693.13;;;0.40;62.57
65384;BME280;51986;52.788;41.368;2022-10-31T02:05:31;97682.81;;;0.51;61.95
65384;BME280;51986;52.788;41.368;2022-10-31T02:10:36;97705.03;;;0.45;62.00
65384;BME280;51986;52.788;41.368;2022-10-31T02:13:06;97685.00;;;0.42;62.63
65384;BME280;51986;52.788;41.368;2022-10-31T02:15:44;97693.53;;;0.42;62.70
65384;BME280;51986;52.788;41.368;2022-10-31T02:18:11;97679.03;;;0.34;62.99
65384;BME280;51986;52.788;41.368;2022-10-31T02:32:33;97697.63;;;0.50;62.80
65384;BME280;51986;52.788;41.368;2022-10-31T02:40:48;97682.81;;;0.51;61.98
65384;BME280;51986;52.788;41.368;2022-10-31T02:49:00;97708.59;;;0.22;62.80
65384;BME280;51986;52.788;41.368;2022-10-31T02:51:29;97685.81;;;0.53;61.15
65384;BME280;51986;52.788;41.368;2022-10-31T02:53:56;97680.19;;;0.44;61.56
65384;BME280;51986;52.788;41.368;2022-10-31T02:56:23;97669.00;;;0.29;61.96
65384;BME280;51986;52.788;41.368;2022-10-31T02:58:58;97690.84;;;0.24;61.60
65384;BME280;51986;52.788;41.368;2022-10-31T03:01:33;97683.53;;;0.44;61.78
65384;BME280;51986;52.788;41.368;2022-10-31T03:09:59;97677.50;;;0.26;61.62
65384;BME280;51986;52.788;41.368;2022-10-31T03:15:32;97665.25;;;0.19;62.19
65384;BME280;51986;52.788;41.368;2022-10-31T03:18:07;97699.22;;;0.07;62.12
65384;BME280;51986;52.788;41.368;2022-10-31T03:20:41;97670.03;;;0.17;61.68
65384;BME280;51986;52.788;41.368;2022-10-31T03:23:15;97674.91;;;0.26;61.22
65384;BME280;51986;52.788;41.368;2022-10-31T03:25:48;97678.63;;;0.28;61.27
65384;BME280;51986;52.788;41.368;2022-10-31T03:28:18;97687.53;;;0.27;61.29
65384;BME280;51986;52.788;41.368;2022-10-31T03:30:51;97685.63;;;0.21;61.46
65384;BME280;51986;52.788;41.368;2022-10-31T03:33:23;97666.53;;;-0.08;62.03
65384;BME280;51986;52.788;41.368;2022-10-31T03:35:55;97682.59;;;0.12;62.40
65384;BME280;51986;52.788;41.368;2022-10-31T03:38:25;97691.94;;;0.23;61.53
65384;BME280;51986;52.788;41.368;2022-10-31T03:40:54;97695.97;;;0.17;61.78
65384;BME280;51986;52.788;41.368;2022-10-31T03:43:29;97686.75;;;0.23;61.77
65384;BME280;51986;52.788;41.368;2022-10-31T03:45:58;97671.38;;;-0.03;62.17
65384;BME280;51986;52.788;41.368;2022-10-31T03:48:27;97681.22;;;0.28;61.78
65384;BME280;51986;52.788;41.368;2022-10-31T03:53:45;97683.34;;;0.12;61.84
65384;BME280;51986;52.788;41.368;2022-10-31T03:56:43;97687.84;;;0.19;61.12
65384;BME280;51986;52.788;41.368;2022-10-31T03:59:32;97683.75;;;0.21;61.13
65384;BME280;51986;52.788;41.368;2022-10-31T04:02:07;97690.81;;;0.21;61.26
65384;BME280;51986;52.788;41.368;2022-10-31T04:04:38;97667.03;;;0.12;60.70
65384;BME280;51986;52.788;41.368;2022-10-31T04:07:07;97677.72;;;0.03;61.42
65384;BME280;51986;52.788;41.368;2022-10-31T04:09:40;97642.53;;;0.02;61.37
65384;BME280;51986;52.788;41.368;2022-10-31T04:12:13;97671.06;;;0.06;61.31
65384;BME280;51986;52.788;41.368;2022-10-31T04:14:53;97668.06;;;-0.04;61.35
65384;BME280;51986;52.788;41.368;2022-10-31T04:17:23;97659.13;;;-0.10;62.51
65384;BME280;51986;52.788;41.368;2022-10-31T04:19:54;97660.22;;;-0.14;62.24
65384;BME280;51986;52.788;41.368;2022-10-31T04:22:21;97680.13;;;-0.22;62.35
65384;BME280;51986;52.788;41.368;2022-10-31T04:24:48;97667.56;;;-0.16;62.36
65384;BME280;51986;52.788;41.368;2022-10-31T04:27:16;97672.81;;;-0.09;62.50
65384;BME280;51986;52.788;41.368;2022-10-31T04:29:43;97662.28;;;-0.31;62.65
65384;BME280;51986;52.788;41.368;2022-10-31T04:32:15;97670.94;;;-0.12;62.04
65384;BME280;51986;52.788;41.368;2022-10-31T04:34:42;97649.09;;;-0.15;62.50
65384;BME280;51986;52.788;41.368;2022-10-31T04:37:10;97658.72;;;-0.15;62.22
65384;BME280;51986;52.788;41.368;2022-10-31T04:39:37;97682.50;;;-0.03;61.93
65384;BME280;51986;52.788;41.368;2022-10-31T04:42:30;97665.50;;;-0.00;61.43
65384;BME280;51986;52.788;41.368;2022-10-31T04:45:01;97661.16;;;0.22;61.28
65384;BME280;51986;52.788;41.368;2022-10-31T04:47:33;97655.63;;;0.27;61.52
65384;BME280;51986;52.788;41.368;2022-10-31T04:50:01;97681.25;;;0.32;61.13
65384;BME280;51986;52.788;41.368;2022-10-31T04:52:29;97676.50;;;0.48;60.48
65384;BME280;51986;52.788;41.368;2022-10-31T04:54:56;97690.66;;;0.62;60.38
65384;BME280;51986;52.788;41.368;2022-10-31T04:57:49;97659.97;;;0.81;59.71
65384;BME280;51986;52.788;41.368;2022-10-31T05:00:19;97674.13;;;0.95;59.79
65384;BME280;51986;52.788;41.368;2022-10-31T05:02:51;97686.06;;;1.24;59.13
65384;BME280;51986;52.788;41.368;2022-10-31T05:05:21;97661.22;;;1.38;58.32
65384;BME280;51986;52.788;41.368;2022-10-31T05:07:49;97690.59;;;1.92;56.90
65384;BME280;51986;52.788;41.368;2022-10-31T05:10:24;97686.50;;;1.80;56.67
65384;BME280;51986;52.788;41.368;2022-10-31T05:12:59;97684.63;;;1.73;57.22
65384;BME280;51986;52.788;41.368;2022-10-31T05:15:33;97660.13;;;1.81;56.83
65384;BME280;51986;52.788;41.368;2022-10-31T05:18:09;97678.31;;;1.85;56.66
65384;BME280;51986;52.788;41.368;2022-10-31T05:20:55;97688.00;;;1.92;56.34
65384;BME280;51986;52.788;41.368;2022-10-31T05:23:26;97666.06;;;1.64;56.19
65384;BME280;51986;52.788;41.368;2022-10-31T05:25:53;97684.28;;;1.86;55.65
65384;BME280;51986;52.788;41.368;2022-10-31T05:28:21;97677.94;;;1.54;56.55
65384;BME280;51986;52.788;41.368;2022-10-31T05:30:49;97675.72;;;1.74;56.23
65384;BME280;51986;52.788;41.368;2022-10-31T05:33:16;97679.41;;;1.55;56.07
65384;BME280;51986;52.788;41.368;2022-10-31T05:36:01;97708.78;;;1.74;55.95
65384;BME280;51986;52.788;41.368;2022-10-31T05:38:28;97667.56;;;1.58;56.41
65384;BME280;51986;52.788;41.368;2022-10-31T05:40:59;97696.16;;;1.69;56.43
65384;BME280;51986;52.788;41.368;2022-10-31T05:43:26;97703.94;;;1.54;55.92
65384;BME280;51986;52.788;41.368;2022-10-31T05:45:55;97710.22;;;1.36;57.13
65384;BME280;51986;52.788;41.368;2022-10-31T05:48:42;97703.56;;;1.56;56.01
65384;BME280;51986;52.788;41.368;2022-10-31T05:51:28;97705.41;;;1.38;56.54
65384;BME280;51986;52.788;41.368;2022-10-31T05:53:55;97713.19;;;1.45;57.06
65384;BME280;51986;52.788;41.368;2022-10-31T05:56:26;97714.28;;;1.37;57.25
65384;BME280;51986;52.788;41.368;2022-10-31T05:58:53;97731.03;;;1.43;56.93
65384;BME280;51986;52.788;41.368;2022-10-31T06:01:20;97702.44;;;1.43;56.88
65384;BME280;51986;52.788;41.368;2022-10-31T06:03:48;97715.06;;;1.51;56.83
65384;BME280;51986;52.788;41.368;2022-10-31T06:06:15;97699.44;;;1.33;57.00
65384;BME280;51986;52.788;41.368;2022-10-31T06:08:42;97686.09;;;1.60;56.18
65384;BME280;51986;52.788;41.368;2022-10-31T06:11:13;97707.28;;;1.69;56.02
65384;BME280;51986;52.788;41.368;2022-10-31T06:14:04;97726.97;;;1.74;56.04
65384;BME280;51986;52.788;41.368;2022-10-31T06:16:51;97709.13;;;1.58;55.92
65384;BME280;51986;52.788;41.368;2022-10-31T06:19:36;97721.75;;;1.70;56.18
65384;BME280;51986;52.788;41.368;2022-10-31T06:22:04;97728.09;;;1.76;55.89
65384;BME280;51986;52.788;41.368;2022-10-31T06:24:32;97712.50;;;1.94;55.33
65384;BME280;51986;52.788;41.368;2022-10-31T06:27:06;97708.78;;;1.74;55.65
65384;BME280;51986;52.788;41.368;2022-10-31T06:29:33;97723.25;;;1.57;55.94
65384;BME280;51986;52.788;41.368;2022-10-31T06:32:10;97713.22;;;1.73;55.66
65384;BME280;51986;52.788;41.368;2022-10-31T06:34:41;97718.06;;;1.64;55.52
65384;BME280;51986;52.788;41.368;2022-10-31T06:37:11;97727.34;;;1.69;55.66
65384;BME280;51986;52.788;41.368;2022-10-31T06:39:41;97702.81;;;1.66;55.08
65384;BME280;51986;52.788;41.368;2022-10-31T06:42:10;97715.09;;;1.76;55.49
65384;BME280;51986;52.788;41.368;2022-10-31T06:44:37;97717.31;;;1.74;55.87
65384;BME280;51986;52.788;41.368;2022-10-31T06:47:30;97715.84;;;1.77;55.71
65384;BME280;51986;52.788;41.368;2022-10-31T06:50:03;97708.38;;;1.61;55.94
65384;BME280;51986;52.788;41.368;2022-10-31T06:52:31;97741.47;;;1.71;55.72
65384;BME280;51986;52.788;41.368;2022-10-31T06:54:57;97731.41;;;1.66;55.85
65384;BME280;51986;52.788;41.368;2022-10-31T06:57:24;97747.78;;;1.77;56.11
65384;BME280;51986;52.788;41.368;2022-10-31T06:59:51;97725.09;;;1.56;56.18
65384;BME280;51986;52.788;41.368;2022-10-31T07:02:31;97714.69;;;1.46;56.29
65384;BME280;51986;52.788;41.368;2022-10-31T07:05:00;97719.53;;;1.54;56.26
65384;BME280;51986;52.788;41.368;2022-10-31T07:07:27;97730.69;;;1.69;55.80
65384;BME280;51986;52.788;41.368;2022-10-31T07:09:54;97738.09;;;1.71;56.07
65384;BME280;51986;52.788;41.368;2022-10-31T07:12:36;97758.88;;;1.49;56.27
65384;BME280;51986;52.788;41.368;2022-10-31T07:15:04;97737.72;;;1.65;55.91
65384;BME280;51986;52.788;41.368;2022-10-31T07:17:32;97746.63;;;1.64;56.31
65384;BME280;51986;52.788;41.368;2022-10-31T07:20:00;97742.59;;;1.88;55.49
65384;BME280;51986;52.788;41.368;2022-10-31T07:22:33;97755.94;;;1.90;55.26
65384;BME280;51986;52.788;41.368;2022-10-31T07:25:02;97756.72;;;2.05;55.27
65384;BME280;51986;52.788;41.368;2022-10-31T07:27:55;97785.28;;;1.83;54.82
65384;BME280;51986;52.788;41.368;2022-10-31T07:30:23;97782.00;;;2.15;54.64
65384;BME280;51986;52.788;41.368;2022-10-31T07:32:53;97760.44;;;1.97;55.19
65384;BME280;51986;52.788;41.368;2022-10-31T07:35:25;97755.97;;;2.12;54.41
65384;BME280;51986;52.788;41.368;2022-10-31T07:37:58;97786.44;;;2.00;54.80
65384;BME280;51986;52.788;41.368;2022-10-31T07:40:33;97767.81;;;1.80;54.91
65384;BME280;51986;52.788;41.368;2022-10-31T07:43:00;97774.94;;;2.05;54.08
65384;BME280;51986;52.788;41.368;2022-10-31T07:45:43;97767.09;;;1.83;54.77
65384;BME280;51986;52.788;41.368;2022-10-31T07:48:28;97768.94;;;1.72;55.50
65384;BME280;51986;52.788;41.368;2022-10-31T07:51:14;97789.03;;;1.93;54.84
65384;BME280;51986;52.788;41.368;2022-10-31T07:54:00;97781.94;;;1.72;54.59
65384;BME280;51986;52.788;41.368;2022-10-31T07:56:30;97795.34;;;2.17;53.84
65384;BME280;51986;52.788;41.368;2022-10-31T07:58:57;97766.38;;;2.12;54.96
65384;BME280;51986;52.788;41.368;2022-10-31T08:01:24;97785.69;;;2.21;53.47
65384;BME280;51986;52.788;41.368;2022-10-31T08:04:17;97773.06;;;2.02;54.11
65384;BME280;51986;52.788;41.368;2022-10-31T08:07:02;97788.66;;;2.02;54.68
65384;BME280;51986;52.788;41.368;2022-10-31T08:09:33;97800.53;;;1.99;55.54
65384;BME280;51986;52.788;41.368;2022-10-31T08:12:06;97791.97;;;1.84;56.17
65384;BME280;51986;52.788;41.368;2022-10-31T08:14:34;97809.41;;;1.73;58.52
65384;BME280;51986;52.788;41.368;2022-10-31T08:17:01;97772.31;;;2.08;57.96
65384;BME280;51986;52.788;41.368;2022-10-31T08:19:38;97792.38;;;2.08;58.75
65384;BME280;51986;52.788;41.368;2022-10-31T08:22:08;97803.88;;;1.89;59.51
65384;BME280;51986;52.788;41.368;2022-10-31T08:24:36;97797.94;;;1.92;59.52
65384;BME280;51986;52.788;41.368;2022-10-31T08:27:03;97803.91;;;2.14;58.95
65384;BME280;51986;52.788;41.368;2022-10-31T08:29:31;97815.38;;;1.77;58.79
65384;BME280;51986;52.788;41.368;2022-10-31T08:31:58;97828.97;;;1.42;59.71
65384;BME280;51986;52.788;41.368;2022-10-31T08:34:43;97812.19;;;1.15;61.01
65384;BME280;51986;52.788;41.368;2022-10-31T08:37:29;97820.03;;;1.32;60.67
65384;BME280;51986;52.788;41.368;2022-10-31T08:39:56;97845.28;;;1.32;61.22
65384;BME280;51986;52.788;41.368;2022-10-31T08:42:23;97845.72;;;1.45;61.45
65384;BME280;51986;52.788;41.368;2022-10-31T08:44:50;97853.78;;;1.25;61.58
65384;BME280;51986;52.788;41.368;2022-10-31T08:47:20;97809.75;;;1.54;59.67
65384;BME280;51986;52.788;41.368;2022-10-31T08:49:47;97833.88;;;1.58;60.74
65384;BME280;51986;52.788;41.368;2022-10-31T08:52:14;97809.00;;;1.53;60.09
65384;BME280;51986;52.788;41.368;2022-10-31T08:54:43;97858.44;;;1.75;59.86
65384;BME280;51986;52.788;41.368;2022-10-31T08:57:39;97860.38;;;2.06;59.02
65384;BME280;51986;52.788;41.368;2022-10-31T09:00:06;97846.25;;;2.07;57.79
65384;BME280;51986;52.788;41.368;2022-10-31T09:02:59;97857.75;;;1.99;58.53
65384;BME280;51986;52.788;41.368;2022-10-31T09:05:29;97854.44;;;2.27;57.38
65384;BME280;51986;52.788;41.368;2022-10-31T09:07:58;97810.22;;;2.09;57.11
65384;BME280;51986;52.788;41.368;2022-10-31T09:10:28;97838.84;;;2.52;56.01
65384;BME280;51986;52.788;41.368;2022-10-31T09:13:16;97837.66;;;3.10;54.91
65384;BME280;51986;52.788;41.368;2022-10-31T09:15:48;97849.91;;;3.13;54.47
65384;BME280;51986;52.788;41.368;2022-10-31T09:18:23;97856.31;;;2.66;54.59
65384;BME280;51986;52.788;41.368;2022-10-31T09:21:00;97864.88;;;2.84;54.83
65384;BME280;51986;52.788;41.368;2022-10-31T09:23:29;97851.09;;;2.87;55.18
65384;BME280;51986;52.788;41.368;2022-10-31T09:26:00;97857.78;;;2.96;54.92
65384;BME280;51986;52.788;41.368;2022-10-31T09:28:34;97849.25;;;2.92;54.92
65384;BME280;51986;52.788;41.368;2022-10-31T09:31:09;97882.34;;;2.91;54.74
65384;BME280;51986;52.788;41.368;2022-10-31T09:33:54;97857.81;;;2.74;54.55
65384;BME280;51986;52.788;41.368;2022-10-31T09:36:44;97867.44;;;2.99;52.89
65384;BME280;51986;52.788;41.368;2022-10-31T09:39:19;97864.47;;;2.93;52.84
65384;BME280;51986;52.788;41.368;2022-10-31T09:47:39;97862.25;;;2.88;53.60
65384;BME280;51986;52.788;41.368;2022-10-31T09:56:26;97921.78;;;3.00;52.93
65384;BME280;51986;52.788;41.368;2022-10-31T09:59:00;97877.81;;;3.31;52.90
65384;BME280;51986;52.788;41.368;2022-10-31T10:05:29;97888.31;;;2.88;53.52
65384;BME280;51986;52.788;41.368;2022-10-31T10:08:12;97896.88;;;2.92;53.08
65384;BME280;51986;52.788;41.368;2022-10-31T10:17:41;97905.34;;;3.35;53.38
65384;BME280;51986;52.788;41.368;2022-10-31T10:22:46;97931.47;;;2.93;55.01
65384;BME280;51986;52.788;41.368;2022-10-31T10:25:19;97913.22;;;2.85;54.68
65384;BME280;51986;52.788;41.368;2022-10-31T10:30:56;97936.69;;;2.93;55.23
65384;BME280;51986;52.788;41.368;2022-10-31T10:39:21;97929.94;;;3.09;54.90
65384;BME280;51986;52.788;41.368;2022-10-31T10:41:51;97937.41;;;2.90;54.72
65384;BME280;51986;52.788;41.368;2022-10-31T10:44:18;97897.19;;;2.23;55.91
65384;BME280;51986;52.788;41.368;2022-10-31T10:46:48;97943.38;;;2.94;55.33
65384;BME280;51986;52.788;41.368;2022-10-31T10:49:24;97945.63;;;2.92;55.43
65384;BME280;51986;52.788;41.368;2022-10-31T10:52:10;97923.25;;;3.12;55.10
65384;BME280;51986;52.788;41.368;2022-10-31T10:55:32;97983.56;;;3.18;54.25
65384;BME280;51986;52.788;41.368;2022-10-31T10:58:06;97962.72;;;3.18;55.00
65384;BME280;51986;52.788;41.368;2022-10-31T11:00:45;97959.38;;;2.88;55.72
65384;BME280;51986;52.788;41.368;2022-10-31T11:03:18;97951.16;;;2.54;57.85
65384;BME280;51986;52.788;41.368;2022-10-31T11:08:32;97934.44;;;2.59;58.27
65384;BME280;51986;52.788;41.368;2022-10-31T11:13:48;97970.50;;;2.53;57.87
65384;BME280;51986;52.788;41.368;2022-10-31T11:16:37;97971.25;;;2.61;58.04
65384;BME280;51986;52.788;41.368;2022-10-31T11:21:41;97980.56;;;2.58;58.71
65384;BME280;51986;52.788;41.368;2022-10-31T11:26:36;97969.00;;;2.67;56.95
65384;BME280;51986;52.788;41.368;2022-10-31T11:29:05;97993.13;;;2.35;57.65
65384;BME280;51986;52.788;41.368;2022-10-31T11:31:34;97993.97;;;2.68;56.98
65384;BME280;51986;52.788;41.368;2022-10-31T11:34:12;97979.44;;;2.63;57.03
65384;BME280;51986;52.788;41.368;2022-10-31T11:36:44;97979.81;;;2.69;56.07
65384;BME280;51986;52.788;41.368;2022-10-31T11:39:21;97980.94;;;2.68;54.89
65384;BME280;51986;52.788;41.368;2022-10-31T11:41:50;97978.28;;;2.57;55.89
65384;BME280;51986;52.788;41.368;2022-10-31T11:44:21;98010.38;;;3.11;55.50
65384;BME280;51986;52.788;41.368;2022-10-31T11:47:01;98007.38;;;3.16;56.12
65384;BME280;51986;52.788;41.368;2022-10-31T11:49:38;97996.97;;;3.05;55.90
65384;BME280;51986;52.788;41.368;2022-10-31T11:52:18;98000.31;;;3.13;55.45
65384;BME280;51986;52.788;41.368;2022-10-31T11:57:42;98005.53;;;3.20;55.37
65384;BME280;51986;52.788;41.368;2022-10-31T12:00:29;97998.09;;;3.15;55.27
65384;BME280;51986;52.788;41.368;2022-10-31T12:06:07;98021.91;;;2.96;55.05
65384;BME280;51986;52.788;41.368;2022-10-31T12:08:40;98035.28;;;3.12;54.43
65384;BME280;51986;52.788;41.368;2022-10-31T12:28:25;98037.09;;;2.69;55.35
65384;BME280;51986;52.788;41.368;2022-10-31T12:39:03;98066.44;;;2.55;56.14
65384;BME280;51986;52.788;41.368;2022-10-31T12:44:41;98061.59;;;2.57;55.97
65384;BME280;51986;52.788;41.368;2022-10-31T12:55:44;98080.53;;;2.47;57.18
65384;BME280;51986;52.788;41.368;2022-10-31T12:58:22;98063.03;;;2.36;57.43
65384;BME280;51986;52.788;41.368;2022-10-31T13:06:16;98076.03;;;2.36;57.14
65384;BME280;51986;52.788;41.368;2022-10-31T13:08:50;98070.88;;;2.44;56.93
65384;BME280;51986;52.788;41.368;2022-10-31T13:11:23;98070.41;;;2.27;56.64
65384;BME280;51986;52.788;41.368;2022-10-31T13:16:29;98091.16;;;2.13;57.54
65384;BME280;51986;52.788;41.368;2022-10-31T13:19:01;98097.81;;;2.07;57.30
65384;BME280;51986;52.788;41.368;2022-10-31T13:21:36;98111.19;;;2.09;58.19
65384;BME280;51986;52.788;41.368;2022-10-31T13:24:10;98094.94;;;2.23;58.18
65384;BME280;51986;52.788;41.368;2022-10-31T13:26:54;98087.84;;;2.16;58.39
65384;BME280;51986;52.788;41.368;2022-10-31T13:29:42;98097.81;;;2.07;58.46
65384;BME280;51986;52.788;41.368;2022-10-31T13:32:12;98118.69;;;2.14;58.85
65384;BME280;51986;52.788;41.368;2022-10-31T13:34:50;98081.84;;;2.08;58.24
65384;BME280;51986;52.788;41.368;2022-10-31T13:37:34;98098.97;;;2.13;58.05
65384;BME280;51986;52.788;41.368;2022-10-31T13:42:50;98103.00;;;2.03;58.63
65384;BME280;51986;52.788;41.368;2022-10-31T13:45:21;98096.72;;;2.08;58.31
65384;BME280;51986;52.788;41.368;2022-10-31T13:50:29;98120.19;;;2.22;58.23
65384;BME280;51986;52.788;41.368;2022-10-31T13:53:14;98127.78;;;2.56;58.12
65384;BME280;51986;52.788;41.368;2022-10-31T13:55:47;98136.91;;;2.18;58.60
65384;BME280;51986;52.788;41.368;2022-10-31T13:58:25;98131.69;;;2.18;58.36
65384;BME280;51986;52.788;41.368;2022-10-31T14:01:15;98145.78;;;2.13;58.79
65384;BME280;51986;52.788;41.368;2022-10-31T14:03:46;98135.06;;;2.22;58.43
65384;BME280;51986;52.788;41.368;2022-10-31T14:09:31;98134.25;;;2.07;58.77
65384;BME280;51986;52.788;41.368;2022-10-31T14:12:06;98149.22;;;2.24;58.27
65384;BME280;51986;52.788;41.368;2022-10-31T14:14:46;98119.47;;;2.22;58.34
65384;BME280;51986;52.788;41.368;2022-10-31T14:17:19;98151.50;;;2.36;58.25
65384;BME280;51986;52.788;41.368;2022-10-31T14:22:42;98151.88;;;2.35;58.79
65384;BME280;51986;52.788;41.368;2022-10-31T14:25:29;98163.38;;;2.30;58.72
65384;BME280;51986;52.788;41.368;2022-10-31T14:27:58;98157.41;;;2.26;58.33
65384;BME280;51986;52.788;41.368;2022-10-31T14:30:28;98156.28;;;2.24;57.97
65384;BME280;51986;52.788;41.368;2022-10-31T14:32:59;98157.75;;;2.21;57.99
65384;BME280;51986;52.788;41.368;2022-10-31T14:36:12;98144.34;;;2.23;57.73
65384;BME280;51986;52.788;41.368;2022-10-31T14:39:02;98135.81;;;2.22;57.36
65384;BME280;51986;52.788;41.368;2022-10-31T14:41:50;98141.41;;;2.24;57.72
65384;BME280;51986;52.788;41.368;2022-10-31T14:52:57;98160.69;;;2.16;58.31
65384;BME280;51986;52.788;41.368;2022-10-31T14:55:27;98150.66;;;2.15;58.18
65384;BME280;51986;52.788;41.368;2022-10-31T14:57:59;98161.75;;;2.08;58.39
65384;BME280;51986;52.788;41.368;2022-10-31T15:00:27;98156.59;;;2.15;57.49
65384;BME280;51986;52.788;41.368;2022-10-31T15:03:21;98182.34;;;2.34;57.26
65384;BME280;51986;52.788;41.368;2022-10-31T15:05:57;98164.91;;;2.39;57.54
65384;BME280;51986;52.788;41.368;2022-10-31T15:08:40;98174.06;;;2.18;58.02
65384;BME280;51986;52.788;41.368;2022-10-31T15:14:19;98165.25;;;2.37;56.93
65384;BME280;51986;52.788;41.368;2022-10-31T15:16:48;98187.75;;;2.08;55.92
65384;BME280;51986;52.788;41.368;2022-10-31T15:19:21;98191.63;;;2.32;55.91
65384;BME280;51986;52.788;41.368;2022-10-31T15:21:51;98178.22;;;2.26;55.34
65384;BME280;51986;52.788;41.368;2022-10-31T15:24:19;98193.13;;;2.33;55.09
65384;BME280;51986;52.788;41.368;2022-10-31T15:26:52;98198.69;;;2.31;55.02
65384;BME280;51986;52.788;41.368;2022-10-31T15:29:23;98191.22;;;2.26;55.39
65384;BME280;51986;52.788;41.368;2022-10-31T15:31:54;98187.56;;;2.34;55.43
65384;BME280;51986;52.788;41.368;2022-10-31T15:37:11;98189.31;;;2.16;55.67
65384;BME280;51986;52.788;41.368;2022-10-31T15:39:38;98191.59;;;2.25;55.41
65384;BME280;51986;52.788;41.368;2022-10-31T15:45:22;98181.19;;;2.28;54.73
65384;BME280;51986;52.788;41.368;2022-10-31T15:48:01;98193.91;;;2.41;54.93
65384;BME280;51986;52.788;41.368;2022-10-31T15:52:57;98197.13;;;2.20;55.77
65384;BME280;51986;52.788;41.368;2022-10-31T15:55:28;98180.72;;;2.12;55.58
65384;BME280;51986;52.788;41.368;2022-10-31T15:57:57;98196.41;;;2.19;55.78
65384;BME280;51986;52.788;41.368;2022-10-31T16:00:32;98185.94;;;2.12;56.11
65384;BME280;51986;52.788;41.368;2022-10-31T16:03:07;98196.72;;;2.14;56.37
65384;BME280;51986;52.788;41.368;2022-10-31T16:05:50;98190.00;;;2.13;56.10
65384;BME280;51986;52.788;41.368;2022-10-31T16:08:36;98220.47;;;2.09;56.45
65384;BME280;51986;52.788;41.368;2022-10-31T16:13:40;98209.00;;;2.17;56.27
65384;BME280;51986;52.788;41.368;2022-10-31T16:16:13;98205.41;;;1.84;58.22
65384;BME280;51986;52.788;41.368;2022-10-31T16:19:05;98200.53;;;1.79;59.04